createdAt,value
2023-02-13T00:00:12.788Z,551.00
2023-02-13T00:00:42.910Z,550.00
2023-02-13T00:01:12.908Z,551.00
2023-02-13T00:01:43.023Z,553.00
2023-02-13T00:02:13.195Z,555.00
2023-02-13T00:02:43.236Z,556.00
2023-02-13T00:03:13.357Z,556.00
2023-02-13T00:03:43.414Z,556.00
2023-02-13T00:04:13.459Z,554.00
2023-02-13T00:04:43.452Z,553.00
2023-02-13T00:05:13.439Z,552.00
2023-02-13T00:05:43.455Z,552.00
2023-02-13T00:06:13.434Z,550.00
2023-02-13T00:06:43.433Z,550.00
2023-02-13T00:07:13.562Z,550.00
2023-02-13T00:07:43.666Z,550.00
2023-02-13T00:08:13.785Z,550.00
2023-02-13T00:08:43.805Z,548.00
2023-02-13T00:09:13.896Z,548.00
2023-02-13T00:09:44.009Z,549.00
2023-02-13T00:10:14.122Z,551.00
2023-02-13T00:10:44.220Z,549.00
2023-02-13T00:11:14.296Z,549.00
2023-02-13T00:11:44.373Z,547.00
2023-02-13T00:12:14.452Z,546.00
2023-02-13T00:12:44.533Z,546.00
2023-02-13T00:13:14.613Z,546.00
2023-02-13T00:13:44.694Z,545.00
2023-02-13T00:14:14.774Z,545.00
2023-02-13T00:14:44.850Z,545.00
2023-02-13T00:15:14.947Z,545.00
2023-02-13T00:15:45.120Z,545.00
2023-02-13T00:16:15.159Z,546.00
2023-02-13T00:16:45.126Z,547.00
2023-02-13T00:17:15.209Z,548.00
2023-02-13T00:17:45.290Z,547.00
2023-02-13T00:18:15.369Z,548.00
2023-02-13T00:18:45.457Z,547.00
2023-02-13T00:19:15.543Z,546.00
2023-02-13T00:19:45.626Z,545.00
2023-02-13T00:20:15.720Z,546.00
2023-02-13T00:20:45.731Z,544.00
2023-02-13T00:21:15.731Z,545.00
2023-02-13T00:21:45.732Z,545.00
2023-02-13T00:22:15.736Z,545.00
2023-02-13T00:22:45.738Z,544.00
2023-02-13T00:23:15.743Z,545.00
2023-02-13T00:23:45.846Z,546.00
2023-02-13T00:24:15.870Z,549.00
2023-02-13T00:24:45.974Z,550.00
2023-02-13T00:25:16.084Z,549.00
2023-02-13T00:25:46.085Z,549.00
2023-02-13T00:26:16.100Z,549.00
2023-02-13T00:26:46.090Z,550.00
2023-02-13T00:27:16.084Z,550.00
2023-02-13T00:27:46.202Z,549.00
2023-02-13T00:28:16.362Z,549.00
2023-02-13T00:28:46.351Z,549.00
2023-02-13T00:29:16.464Z,548.00
2023-02-13T00:29:46.579Z,548.00
2023-02-13T00:30:16.588Z,547.00
2023-02-13T00:30:46.906Z,546.00
2023-02-13T00:31:17.030Z,547.00
2023-02-13T00:31:46.968Z,545.00
2023-02-13T00:32:16.990Z,545.00
2023-02-13T00:32:46.961Z,545.00
2023-02-13T00:33:17.077Z,544.00
2023-02-13T00:33:47.194Z,545.00
2023-02-13T00:34:17.311Z,545.00
2023-02-13T00:34:47.446Z,546.00
2023-02-13T00:35:17.433Z,546.00
2023-02-13T00:35:47.530Z,545.00
2023-02-13T00:36:17.544Z,543.00
2023-02-13T00:36:47.529Z,544.00
2023-02-13T00:37:17.651Z,544.00
2023-02-13T00:37:47.766Z,546.00
2023-02-13T00:38:17.881Z,546.00
2023-02-13T00:38:48.005Z,547.00
2023-02-13T00:39:18.006Z,548.00
2023-02-13T00:39:48.034Z,547.00
2023-02-13T00:40:17.999Z,547.00
2023-02-13T00:40:48.003Z,547.00
2023-02-13T00:41:18.118Z,548.00
2023-02-13T00:41:48.117Z,547.00
2023-02-13T00:42:18.118Z,547.00
2023-02-13T00:42:48.233Z,546.00
2023-02-13T00:43:20.304Z,545.00
2023-02-13T00:43:48.225Z,545.00
2023-02-13T00:44:18.221Z,545.00
2023-02-13T00:44:48.224Z,545.00
2023-02-13T00:45:18.211Z,545.00
2023-02-13T00:45:48.326Z,544.00
2023-02-13T00:46:18.416Z,544.00
2023-02-13T00:46:48.564Z,544.00
2023-02-13T00:47:18.437Z,545.00
2023-02-13T00:47:48.432Z,545.00
2023-02-13T00:48:18.543Z,546.00
2023-02-13T00:48:48.661Z,546.00
2023-02-13T00:49:18.669Z,546.00
2023-02-13T00:49:48.655Z,547.00
2023-02-13T00:50:18.659Z,547.00
2023-02-13T00:50:48.650Z,548.00
2023-02-13T00:51:18.789Z,549.00
2023-02-13T00:51:48.772Z,551.00
2023-02-13T00:52:18.762Z,551.00
2023-02-13T00:52:48.882Z,550.00
2023-02-13T00:53:18.995Z,551.00
2023-02-13T00:53:48.989Z,551.00
2023-02-13T00:54:19.103Z,550.00
2023-02-13T00:54:49.100Z,548.00
2023-02-13T00:55:19.251Z,549.00
2023-02-13T00:55:49.329Z,549.00
2023-02-13T00:56:19.353Z,549.00
2023-02-13T00:56:49.355Z,550.00
2023-02-13T00:57:19.350Z,551.00
2023-02-13T00:57:49.467Z,551.00
2023-02-13T00:58:19.559Z,551.00
2023-02-13T00:58:49.524Z,552.00
2023-02-13T00:59:19.640Z,551.00
2023-02-13T00:59:51.067Z,549.00
2023-02-13T01:00:19.692Z,547.00
2023-02-13T01:00:49.811Z,545.00
2023-02-13T01:01:19.855Z,545.00
2023-02-13T01:01:49.909Z,544.00
2023-02-13T01:02:19.913Z,544.00
2023-02-13T01:02:50.035Z,544.00
2023-02-13T01:03:20.198Z,546.00
2023-02-13T01:03:50.187Z,547.00
2023-02-13T01:04:20.178Z,548.00
2023-02-13T01:04:50.290Z,548.00
2023-02-13T01:05:20.405Z,548.00
2023-02-13T01:05:50.405Z,547.00
2023-02-13T01:06:20.523Z,546.00
2023-02-13T01:06:50.641Z,548.00
2023-02-13T01:07:20.629Z,548.00
2023-02-13T01:07:50.748Z,547.00
2023-02-13T01:08:20.764Z,546.00
2023-02-13T01:08:50.878Z,546.00
2023-02-13T01:09:20.867Z,546.00
2023-02-13T01:09:50.973Z,546.00
2023-02-13T01:10:21.110Z,544.00
2023-02-13T01:10:51.166Z,544.00
2023-02-13T01:11:21.271Z,544.00
2023-02-13T01:11:51.357Z,544.00
2023-02-13T01:12:21.430Z,546.00
2023-02-13T01:12:51.525Z,546.00
2023-02-13T01:13:21.606Z,545.00
2023-02-13T01:13:51.689Z,547.00
2023-02-13T01:14:21.797Z,544.00
2023-02-13T01:14:51.859Z,545.00
2023-02-13T01:15:21.941Z,545.00
2023-02-13T01:15:52.056Z,544.00
2023-02-13T01:16:22.180Z,545.00
2023-02-13T01:16:52.156Z,547.00
2023-02-13T01:17:22.229Z,547.00
2023-02-13T01:17:52.310Z,547.00
2023-02-13T01:18:22.335Z,546.00
2023-02-13T01:18:52.426Z,547.00
2023-02-13T01:19:22.494Z,547.00
2023-02-13T01:19:52.576Z,545.00
2023-02-13T01:20:22.673Z,544.00
2023-02-13T01:20:52.672Z,546.00
2023-02-13T01:21:22.668Z,546.00
2023-02-13T01:21:52.797Z,545.00
2023-02-13T01:22:22.798Z,546.00
2023-02-13T01:22:52.796Z,548.00
2023-02-13T01:23:22.908Z,547.00
2023-02-13T01:23:53.021Z,547.00
2023-02-13T01:24:23.019Z,547.00
2023-02-13T01:24:53.013Z,548.00
2023-02-13T01:25:23.162Z,548.00
2023-02-13T01:25:53.138Z,547.00
2023-02-13T01:26:23.255Z,545.00
2023-02-13T01:26:53.255Z,546.00
2023-02-13T01:27:23.247Z,545.00
2023-02-13T01:27:53.361Z,548.00
2023-02-13T01:28:23.381Z,547.00
2023-02-13T01:28:53.363Z,548.00
2023-02-13T01:29:23.480Z,548.00
2023-02-13T01:29:53.472Z,548.00
2023-02-13T01:30:23.588Z,548.00
2023-02-13T01:30:53.739Z,548.00
2023-02-13T01:31:23.813Z,549.00
2023-02-13T01:31:53.920Z,550.00
2023-02-13T01:32:23.808Z,549.00
2023-02-13T01:32:53.805Z,548.00
2023-02-13T01:33:23.925Z,548.00
2023-02-13T01:33:54.038Z,548.00
2023-02-13T01:34:24.153Z,546.00
2023-02-13T01:34:54.273Z,546.00
2023-02-13T01:35:24.389Z,544.00
2023-02-13T01:35:54.505Z,543.00
2023-02-13T01:36:24.617Z,543.00
2023-02-13T01:36:54.738Z,543.00
2023-02-13T01:37:24.850Z,544.00
2023-02-13T01:37:54.843Z,544.00
2023-02-13T01:38:24.840Z,544.00
2023-02-13T01:38:54.917Z,544.00
2023-02-13T01:39:24.919Z,544.00
2023-02-13T01:39:55.032Z,543.00
2023-02-13T01:40:25.049Z,543.00
2023-02-13T01:40:55.707Z,542.00
2023-02-13T01:41:25.202Z,541.00
2023-02-13T01:41:55.197Z,542.00
2023-02-13T01:42:25.197Z,539.00
2023-02-13T01:42:55.193Z,539.00
2023-02-13T01:43:25.194Z,538.00
2023-02-13T01:43:55.185Z,537.00
2023-02-13T01:44:25.302Z,538.00
2023-02-13T01:44:55.428Z,538.00
2023-02-13T01:45:25.412Z,537.00
2023-02-13T01:45:55.522Z,539.00
2023-02-13T01:46:25.676Z,539.00
2023-02-13T01:46:55.790Z,538.00
2023-02-13T01:47:25.772Z,538.00
2023-02-13T01:47:55.885Z,538.00
2023-02-13T01:48:25.909Z,538.00
2023-02-13T01:48:55.876Z,538.00
2023-02-13T01:49:25.999Z,538.00
2023-02-13T01:49:56.113Z,538.00
2023-02-13T01:50:26.116Z,538.00
2023-02-13T01:50:56.548Z,539.00
2023-02-13T01:51:26.292Z,540.00
2023-02-13T01:51:56.394Z,540.00
2023-02-13T01:52:26.509Z,540.00
2023-02-13T01:52:56.504Z,539.00
2023-02-13T01:53:26.617Z,539.00
2023-02-13T01:53:56.734Z,541.00
2023-02-13T01:54:26.851Z,542.00
2023-02-13T01:54:56.983Z,542.00
2023-02-13T01:55:27.086Z,541.00
2023-02-13T01:55:57.109Z,540.00
2023-02-13T01:56:27.077Z,542.00
2023-02-13T01:56:57.190Z,540.00
2023-02-13T01:57:27.226Z,540.00
2023-02-13T01:57:57.214Z,543.00
2023-02-13T01:58:27.325Z,543.00
2023-02-13T01:58:57.327Z,542.00
2023-02-13T01:59:27.328Z,544.00
2023-02-13T01:59:57.453Z,545.00
2023-02-13T02:00:27.441Z,546.00
2023-02-13T02:00:57.905Z,546.00
2023-02-13T02:01:27.632Z,548.00
2023-02-13T02:01:57.891Z,549.00
2023-02-13T02:02:27.721Z,549.00
2023-02-13T02:02:57.702Z,550.00
2023-02-13T02:03:27.700Z,550.00
2023-02-13T02:03:57.814Z,549.00
2023-02-13T02:04:27.931Z,550.00
2023-02-13T02:04:57.923Z,549.00
2023-02-13T02:05:28.040Z,549.00
2023-02-13T02:05:58.169Z,547.00
2023-02-13T02:06:28.161Z,547.00
2023-02-13T02:06:58.146Z,546.00
2023-02-13T02:07:28.264Z,545.00
2023-02-13T02:07:58.266Z,545.00
2023-02-13T02:08:28.266Z,547.00
2023-02-13T02:08:58.374Z,548.00
2023-02-13T02:09:28.370Z,547.00
2023-02-13T02:09:58.502Z,547.00
2023-02-13T02:11:07.771Z,546.00
2023-02-13T02:11:37.589Z,543.00
2023-02-13T02:12:07.665Z,545.00
2023-02-13T02:12:37.745Z,546.00
2023-02-13T02:13:07.832Z,547.00
2023-02-13T02:13:37.936Z,548.00
2023-02-13T02:14:08.002Z,550.00
2023-02-13T02:14:38.075Z,551.00
2023-02-13T02:15:08.155Z,551.00
2023-02-13T02:15:38.235Z,552.00
2023-02-13T02:16:08.486Z,552.00
2023-02-13T02:16:38.365Z,553.00
2023-02-13T02:17:08.439Z,554.00
2023-02-13T02:17:38.536Z,553.00
2023-02-13T02:18:08.599Z,553.00
2023-02-13T02:18:38.683Z,553.00
2023-02-13T02:19:08.761Z,552.00
2023-02-13T02:19:38.840Z,551.00
2023-02-13T02:20:08.919Z,550.00
2023-02-13T02:20:39.005Z,549.00
2023-02-13T02:21:09.133Z,548.00
2023-02-13T02:21:39.128Z,547.00
2023-02-13T02:22:09.121Z,548.00
2023-02-13T02:22:39.113Z,548.00
2023-02-13T02:23:09.248Z,547.00
2023-02-13T02:23:39.230Z,546.00
2023-02-13T02:24:09.340Z,548.00
2023-02-13T02:24:39.338Z,549.00
2023-02-13T02:25:09.332Z,549.00
2023-02-13T02:25:39.453Z,549.00
2023-02-13T02:26:09.444Z,549.00
2023-02-13T02:26:39.593Z,547.00
2023-02-13T02:27:09.561Z,551.00
2023-02-13T02:27:39.554Z,551.00
2023-02-13T02:28:09.720Z,552.00
2023-02-13T02:28:39.759Z,551.00
2023-02-13T02:29:09.759Z,549.00
2023-02-13T02:29:39.754Z,550.00
2023-02-13T02:30:09.873Z,551.00
2023-02-13T02:30:39.881Z,550.00
2023-02-13T02:31:09.996Z,549.00
2023-02-13T02:31:39.973Z,549.00
2023-02-13T02:32:09.962Z,551.00
2023-02-13T02:32:39.953Z,550.00
2023-02-13T02:33:10.074Z,550.00
2023-02-13T02:33:40.062Z,551.00
2023-02-13T02:34:10.197Z,550.00
2023-02-13T02:34:40.300Z,548.00
2023-02-13T02:35:10.416Z,548.00
2023-02-13T02:35:40.526Z,549.00
2023-02-13T02:36:10.649Z,549.00
2023-02-13T02:36:40.762Z,549.00
2023-02-13T02:37:10.884Z,549.00
2023-02-13T02:37:40.871Z,549.00
2023-02-13T02:38:10.993Z,548.00
2023-02-13T02:38:41.102Z,547.00
2023-02-13T02:39:11.220Z,547.00
2023-02-13T02:39:41.223Z,547.00
2023-02-13T02:40:11.341Z,546.00
2023-02-13T02:40:41.322Z,546.00
2023-02-13T02:41:11.441Z,548.00
2023-02-13T02:41:41.564Z,547.00
2023-02-13T02:42:11.593Z,548.00
2023-02-13T02:42:41.565Z,550.00
2023-02-13T02:43:11.693Z,551.00
2023-02-13T02:43:41.692Z,551.00
2023-02-13T02:44:11.803Z,550.00
2023-02-13T02:44:41.921Z,551.00
2023-02-13T02:45:12.034Z,549.00
2023-02-13T02:45:42.153Z,549.00
2023-02-13T02:46:12.149Z,548.00
2023-02-13T02:46:42.349Z,548.00
2023-02-13T02:47:12.326Z,548.00
2023-02-13T02:47:42.447Z,546.00
2023-02-13T02:48:12.562Z,545.00
2023-02-13T02:48:42.685Z,547.00
2023-02-13T02:49:12.679Z,549.00
2023-02-13T02:49:42.784Z,548.00
2023-02-13T02:50:12.900Z,548.00
2023-02-13T02:50:43.026Z,546.00
2023-02-13T02:51:13.126Z,546.00
2023-02-13T02:51:43.253Z,546.00
2023-02-13T02:52:13.241Z,547.00
2023-02-13T02:52:43.356Z,544.00
2023-02-13T02:53:13.470Z,545.00
2023-02-13T02:53:43.579Z,546.00
2023-02-13T02:54:13.696Z,546.00
2023-02-13T02:54:43.830Z,544.00
2023-02-13T02:55:13.942Z,544.00
2023-02-13T02:55:44.044Z,543.00
2023-02-13T02:56:14.163Z,544.00
2023-02-13T02:56:44.289Z,545.00
2023-02-13T02:57:14.390Z,544.00
2023-02-13T02:57:44.423Z,544.00
2023-02-13T02:58:14.408Z,545.00
2023-02-13T02:58:44.513Z,547.00
2023-02-13T02:59:14.520Z,546.00
2023-02-13T02:59:44.627Z,549.00
2023-02-13T03:00:14.742Z,550.00
2023-02-13T03:00:44.829Z,551.00
2023-02-13T03:01:14.843Z,550.00
2023-02-13T03:01:44.875Z,550.00
2023-02-13T03:02:14.879Z,551.00
2023-02-13T03:02:44.996Z,550.00
2023-02-13T03:03:15.108Z,552.00
2023-02-13T03:03:45.227Z,552.00
2023-02-13T03:04:15.237Z,552.00
2023-02-13T03:04:45.318Z,552.00
2023-02-13T03:05:15.322Z,554.00
2023-02-13T03:05:45.434Z,554.00
2023-02-13T03:06:15.552Z,554.00
2023-02-13T03:06:45.551Z,552.00
2023-02-13T03:07:15.558Z,553.00
2023-02-13T03:07:45.676Z,553.00
2023-02-13T03:08:15.672Z,553.00
2023-02-13T03:08:45.786Z,551.00
2023-02-13T03:09:15.903Z,552.00
2023-02-13T03:09:45.898Z,549.00
2023-02-13T03:10:16.012Z,547.00
2023-02-13T03:10:46.115Z,546.00
2023-02-13T03:11:16.201Z,547.00
2023-02-13T03:11:46.278Z,547.00
2023-02-13T03:12:16.351Z,547.00
2023-02-13T03:12:46.468Z,548.00
2023-02-13T03:13:16.516Z,546.00
2023-02-13T03:13:46.596Z,547.00
2023-02-13T03:14:16.678Z,547.00
2023-02-13T03:14:46.761Z,549.00
2023-02-13T03:15:16.848Z,550.00
2023-02-13T03:15:46.922Z,549.00
2023-02-13T03:16:17.052Z,548.00
2023-02-13T03:16:47.019Z,548.00
2023-02-13T03:17:17.095Z,549.00
2023-02-13T03:17:47.173Z,549.00
2023-02-13T03:18:17.257Z,549.00
2023-02-13T03:18:47.338Z,547.00
2023-02-13T03:19:17.417Z,546.00
2023-02-13T03:19:47.500Z,546.00
2023-02-13T03:20:17.568Z,546.00
2023-02-13T03:20:47.672Z,547.00
2023-02-13T03:21:17.665Z,546.00
2023-02-13T03:21:47.780Z,546.00
2023-02-13T03:22:17.905Z,548.00
2023-02-13T03:22:48.018Z,547.00
2023-02-13T03:23:18.142Z,547.00
2023-02-13T03:23:48.250Z,547.00
2023-02-13T03:24:18.242Z,546.00
2023-02-13T03:24:48.373Z,548.00
2023-02-13T03:25:18.365Z,547.00
2023-02-13T03:25:48.357Z,546.00
2023-02-13T03:26:18.478Z,546.00
2023-02-13T03:26:48.588Z,547.00
2023-02-13T03:27:18.584Z,547.00
2023-02-13T03:27:48.732Z,547.00
2023-02-13T03:28:18.784Z,547.00
2023-02-13T03:28:48.780Z,546.00
2023-02-13T03:29:18.765Z,545.00
2023-02-13T03:29:48.876Z,545.00
2023-02-13T03:30:18.993Z,544.00
2023-02-13T03:30:49.197Z,543.00
2023-02-13T03:31:19.293Z,544.00
2023-02-13T03:31:49.331Z,543.00
2023-02-13T03:32:19.336Z,541.00
2023-02-13T03:32:49.321Z,540.00
2023-02-13T03:33:19.429Z,542.00
2023-02-13T03:33:49.550Z,542.00
2023-02-13T03:34:19.541Z,544.00
2023-02-13T03:34:49.659Z,544.00
2023-02-13T03:35:19.771Z,545.00
2023-02-13T03:35:49.891Z,547.00
2023-02-13T03:36:20.026Z,547.00
2023-02-13T03:36:50.013Z,548.00
2023-02-13T03:37:20.073Z,546.00
2023-02-13T03:37:50.178Z,547.00
2023-02-13T03:38:20.320Z,548.00
2023-02-13T03:38:50.422Z,548.00
2023-02-13T03:39:20.531Z,549.00
2023-02-13T03:39:50.647Z,549.00
2023-02-13T03:40:20.762Z,547.00
2023-02-13T03:40:50.886Z,547.00
2023-02-13T03:41:20.899Z,547.00
2023-02-13T03:41:50.892Z,545.00
2023-02-13T03:42:21.017Z,546.00
2023-02-13T03:42:51.147Z,545.00
2023-02-13T03:43:21.114Z,545.00
2023-02-13T03:43:51.230Z,546.00
2023-02-13T03:44:21.355Z,547.00
2023-02-13T03:44:51.463Z,545.00
2023-02-13T03:45:21.580Z,545.00
2023-02-13T03:45:51.637Z,543.00
2023-02-13T03:46:21.661Z,541.00
2023-02-13T03:46:51.629Z,540.00
2023-02-13T03:47:21.620Z,542.00
2023-02-13T03:47:51.753Z,543.00
2023-02-13T03:48:21.731Z,544.00
2023-02-13T03:48:51.848Z,544.00
2023-02-13T03:49:21.983Z,544.00
2023-02-13T03:49:51.973Z,543.00
2023-02-13T03:50:21.972Z,545.00
2023-02-13T03:50:52.088Z,546.00
2023-02-13T03:51:22.080Z,546.00
2023-02-13T03:51:52.199Z,546.00
2023-02-13T03:52:22.316Z,547.00
2023-02-13T03:52:52.451Z,548.00
2023-02-13T03:53:22.430Z,549.00
2023-02-13T03:53:52.553Z,548.00
2023-02-13T03:54:22.675Z,549.00
2023-02-13T03:54:52.674Z,549.00
2023-02-13T03:55:22.794Z,548.00
2023-02-13T03:55:52.910Z,550.00
2023-02-13T03:56:22.905Z,549.00
2023-02-13T03:56:53.019Z,549.00
2023-02-13T03:57:23.133Z,548.00
2023-02-13T03:57:53.248Z,549.00
2023-02-13T03:58:23.272Z,551.00
2023-02-13T03:58:53.240Z,552.00
2023-02-13T03:59:23.357Z,552.00
2023-02-13T03:59:53.351Z,552.00
2023-02-13T04:00:23.460Z,552.00
2023-02-13T04:00:53.609Z,553.00
2023-02-13T04:01:23.743Z,554.00
2023-02-13T04:01:53.746Z,554.00
2023-02-13T04:02:23.928Z,556.00
2023-02-13T04:02:53.917Z,556.00
2023-02-13T04:03:24.032Z,557.00
2023-02-13T04:03:54.032Z,554.00
2023-02-13T04:04:24.110Z,553.00
2023-02-13T04:04:54.230Z,553.00
2023-02-13T04:05:24.354Z,553.00
2023-02-13T04:05:54.347Z,551.00
2023-02-13T04:06:24.460Z,549.00
2023-02-13T04:06:54.462Z,548.00
2023-02-13T04:07:24.570Z,548.00
2023-02-13T04:07:54.686Z,549.00
2023-02-13T04:08:24.804Z,549.00
2023-02-13T04:08:54.802Z,550.00
2023-02-13T04:09:24.798Z,549.00
2023-02-13T04:09:54.791Z,550.00
2023-02-13T04:10:24.790Z,549.00
2023-02-13T04:10:55.244Z,549.00
2023-02-13T04:11:24.976Z,549.00
2023-02-13T04:11:55.056Z,549.00
2023-02-13T04:12:25.135Z,548.00
2023-02-13T04:12:55.227Z,549.00
2023-02-13T04:13:25.296Z,549.00
2023-02-13T04:13:55.399Z,548.00
2023-02-13T04:14:25.452Z,549.00
2023-02-13T04:14:55.537Z,548.00
2023-02-13T04:15:25.611Z,548.00
2023-02-13T04:15:55.696Z,549.00
2023-02-13T04:16:25.829Z,549.00
2023-02-13T04:16:55.941Z,548.00
2023-02-13T04:17:25.934Z,549.00
2023-02-13T04:17:56.014Z,548.00
2023-02-13T04:18:26.092Z,547.00
2023-02-13T04:18:56.180Z,546.00
2023-02-13T04:19:26.260Z,545.00
2023-02-13T04:19:56.340Z,547.00
2023-02-13T04:20:26.426Z,546.00
2023-02-13T04:20:56.814Z,545.00
2023-02-13T04:21:26.560Z,546.00
2023-02-13T04:21:56.682Z,546.00
2023-02-13T04:22:26.677Z,544.00
2023-02-13T04:22:56.799Z,545.00
2023-02-13T04:23:26.913Z,545.00
2023-02-13T04:23:56.909Z,545.00
2023-02-13T04:24:27.050Z,545.00
2023-02-13T04:24:57.034Z,545.00
2023-02-13T04:25:27.021Z,546.00
2023-02-13T04:25:57.148Z,548.00
2023-02-13T04:26:27.252Z,547.00
2023-02-13T04:26:57.251Z,548.00
2023-02-13T04:27:27.373Z,546.00
2023-02-13T04:27:57.371Z,546.00
2023-02-13T04:28:27.597Z,545.00
2023-02-13T04:28:57.604Z,546.00
2023-02-13T04:29:27.689Z,546.00
2023-02-13T04:29:57.689Z,547.00
2023-02-13T04:30:27.700Z,546.00
2023-02-13T04:30:58.150Z,546.00
2023-02-13T04:31:27.809Z,548.00
2023-02-13T04:31:57.919Z,551.00
2023-02-13T04:32:27.813Z,552.00
2023-02-13T04:32:57.806Z,551.00
2023-02-13T04:33:27.802Z,550.00
2023-02-13T04:33:57.927Z,552.00
2023-02-13T04:34:27.919Z,551.00
2023-02-13T04:34:57.924Z,551.00
2023-02-13T04:35:27.920Z,552.00
2023-02-13T04:35:57.918Z,552.00
2023-02-13T04:36:27.913Z,551.00
2023-02-13T04:36:58.025Z,554.00
2023-02-13T04:37:28.134Z,553.00
2023-02-13T04:37:58.130Z,552.00
2023-02-13T04:38:28.260Z,552.00
2023-02-13T04:38:58.365Z,552.00
2023-02-13T04:39:28.357Z,551.00
2023-02-13T04:39:58.487Z,552.00
2023-02-13T04:40:28.475Z,551.00
2023-02-13T04:40:58.884Z,549.00
2023-02-13T04:41:28.662Z,548.00
2023-02-13T04:41:58.783Z,548.00
2023-02-13T04:42:28.774Z,546.00
2023-02-13T04:42:58.772Z,546.00
2023-02-13T04:43:28.888Z,545.00
2023-02-13T04:43:58.941Z,545.00
2023-02-13T04:44:29.094Z,545.00
2023-02-13T04:44:59.178Z,545.00
2023-02-13T04:45:29.168Z,545.00
2023-02-13T04:45:59.329Z,543.00
2023-02-13T04:46:29.356Z,543.00
2023-02-13T04:46:59.350Z,541.00
2023-02-13T04:47:29.346Z,541.00
2023-02-13T04:47:59.348Z,542.00
2023-02-13T04:48:29.451Z,543.00
2023-02-13T04:48:59.565Z,544.00
2023-02-13T04:49:29.565Z,545.00
2023-02-13T04:49:59.678Z,546.00
2023-02-13T04:50:29.801Z,621.00
2023-02-13T04:50:59.969Z,590.00
2023-02-13T04:51:29.885Z,586.00
2023-02-13T04:51:59.895Z,585.00
2023-02-13T04:52:29.994Z,584.00
2023-02-13T04:52:59.987Z,587.00
2023-02-13T04:53:30.108Z,591.00
2023-02-13T04:54:00.119Z,595.00
2023-02-13T04:54:30.218Z,599.00
2023-02-13T04:55:00.218Z,604.00
2023-02-13T04:55:30.328Z,610.00
2023-02-13T04:56:00.445Z,613.00
2023-02-13T04:56:30.600Z,614.00
2023-02-13T04:57:00.579Z,617.00
2023-02-13T04:57:30.589Z,618.00
2023-02-13T04:58:00.573Z,622.00
2023-02-13T04:58:30.690Z,623.00
2023-02-13T04:59:00.806Z,625.00
2023-02-13T04:59:30.814Z,626.00
2023-02-13T05:00:00.847Z,628.00
2023-02-13T05:00:30.821Z,631.00
2023-02-13T05:01:00.877Z,631.00
2023-02-13T05:01:30.928Z,631.00
2023-02-13T05:02:00.979Z,633.00
2023-02-13T05:02:30.964Z,634.00
2023-02-13T05:03:01.086Z,634.00
2023-02-13T05:03:31.213Z,634.00
2023-02-13T05:04:01.235Z,636.00
2023-02-13T05:04:31.415Z,637.00
2023-02-13T05:05:01.421Z,639.00
2023-02-13T05:05:31.419Z,639.00
2023-02-13T05:06:01.411Z,642.00
2023-02-13T05:06:31.540Z,643.00
2023-02-13T05:07:01.540Z,643.00
2023-02-13T05:07:31.527Z,644.00
2023-02-13T05:08:01.649Z,645.00
2023-02-13T05:08:31.767Z,647.00
2023-02-13T05:09:01.767Z,652.00
2023-02-13T05:09:31.909Z,660.00
2023-02-13T05:10:01.899Z,664.00
2023-02-13T05:10:32.029Z,668.00
2023-02-13T05:11:02.108Z,670.00
2023-02-13T05:11:32.205Z,672.00
2023-02-13T05:12:02.283Z,675.00
2023-02-13T05:12:32.345Z,675.00
2023-02-13T05:13:02.355Z,674.00
2023-02-13T05:13:32.441Z,674.00
2023-02-13T05:14:02.523Z,675.00
2023-02-13T05:14:32.603Z,674.00
2023-02-13T05:15:02.736Z,676.00
2023-02-13T05:15:32.842Z,677.00
2023-02-13T05:16:03.003Z,677.00
2023-02-13T05:16:33.001Z,676.00
2023-02-13T05:17:03.081Z,676.00
2023-02-13T05:17:33.195Z,676.00
2023-02-13T05:18:03.248Z,679.00
2023-02-13T05:18:33.334Z,683.00
2023-02-13T05:19:03.413Z,687.00
2023-02-13T05:19:33.490Z,688.00
2023-02-13T05:20:03.585Z,690.00
2023-02-13T05:20:33.673Z,690.00
2023-02-13T05:21:03.794Z,691.00
2023-02-13T05:21:33.905Z,692.00
2023-02-13T05:22:03.918Z,692.00
2023-02-13T05:22:33.941Z,692.00
2023-02-13T05:23:03.939Z,694.00
2023-02-13T05:23:33.932Z,695.00
2023-02-13T05:24:03.929Z,696.00
2023-02-13T05:24:34.052Z,698.00
2023-02-13T05:25:04.182Z,698.00
2023-02-13T05:25:34.179Z,698.00
2023-02-13T05:26:04.176Z,699.00
2023-02-13T05:26:34.295Z,700.00
2023-02-13T05:27:04.283Z,701.00
2023-02-13T05:27:34.402Z,700.00
2023-02-13T05:28:04.566Z,702.00
2023-02-13T05:28:34.626Z,704.00
2023-02-13T05:29:04.595Z,703.00
2023-02-13T05:29:34.715Z,705.00
2023-02-13T05:30:04.756Z,706.00
2023-02-13T05:30:34.728Z,707.00
2023-02-13T05:31:04.829Z,709.00
2023-02-13T05:31:34.975Z,710.00
2023-02-13T05:32:05.112Z,710.00
2023-02-13T05:32:35.002Z,709.00
2023-02-13T05:33:05.123Z,709.00
2023-02-13T05:33:35.238Z,707.00
2023-02-13T05:34:05.253Z,706.00
2023-02-13T05:34:35.270Z,706.00
2023-02-13T05:35:05.275Z,704.00
2023-02-13T05:35:35.288Z,702.00
2023-02-13T05:36:05.274Z,699.00
2023-02-13T05:36:35.400Z,697.00
2023-02-13T05:37:05.394Z,696.00
2023-02-13T05:37:35.390Z,695.00
2023-02-13T05:38:05.423Z,693.00
2023-02-13T05:38:35.428Z,692.00
2023-02-13T05:39:05.412Z,692.00
2023-02-13T05:39:35.413Z,696.00
2023-02-13T05:40:05.544Z,701.00
2023-02-13T05:40:35.532Z,706.00
2023-02-13T05:41:05.659Z,707.00
2023-02-13T05:41:35.793Z,707.00
2023-02-13T05:42:05.788Z,707.00
2023-02-13T05:42:35.904Z,706.00
2023-02-13T05:43:06.025Z,707.00
2023-02-13T05:43:36.138Z,706.00
2023-02-13T05:44:06.133Z,706.00
2023-02-13T05:44:36.256Z,706.00
2023-02-13T05:45:06.400Z,704.00
2023-02-13T05:45:36.777Z,701.00
2023-02-13T05:46:06.531Z,701.00
2023-02-13T05:46:36.427Z,700.00
2023-02-13T05:47:06.470Z,697.00
2023-02-13T05:47:36.464Z,697.00
2023-02-13T05:48:06.581Z,696.00
2023-02-13T05:48:36.696Z,696.00
2023-02-13T05:49:06.696Z,696.00
2023-02-13T05:49:36.812Z,695.00
2023-02-13T05:50:06.922Z,693.00
2023-02-13T05:50:37.060Z,693.00
2023-02-13T05:51:07.054Z,692.00
2023-02-13T05:51:37.173Z,691.00
2023-02-13T05:52:07.291Z,689.00
2023-02-13T05:52:37.282Z,687.00
2023-02-13T05:53:07.399Z,686.00
2023-02-13T05:53:37.401Z,685.00
2023-02-13T05:54:07.530Z,683.00
2023-02-13T05:54:37.521Z,680.00
2023-02-13T05:55:07.642Z,680.00
2023-02-13T05:55:37.769Z,679.00
2023-02-13T05:56:07.772Z,675.00
2023-02-13T05:56:37.899Z,675.00
2023-02-13T05:57:07.891Z,674.00
2023-02-13T05:57:37.894Z,672.00
2023-02-13T05:58:07.881Z,673.00
2023-02-13T05:58:38.007Z,673.00
2023-02-13T05:59:08.136Z,673.00
2023-02-13T05:59:38.131Z,673.00
2023-02-13T06:00:08.120Z,671.00
2023-02-13T06:00:38.149Z,671.00
2023-02-13T06:01:08.251Z,670.00
2023-02-13T06:01:38.267Z,669.00
2023-02-13T06:02:08.264Z,669.00
2023-02-13T06:02:38.426Z,669.00
2023-02-13T06:03:08.422Z,668.00
2023-02-13T06:03:38.442Z,668.00
2023-02-13T06:04:08.422Z,666.00
2023-02-13T06:04:38.529Z,665.00
2023-02-13T06:05:08.527Z,664.00
2023-02-13T06:05:38.517Z,662.00
2023-02-13T06:06:08.639Z,661.00
2023-02-13T06:06:38.666Z,662.00
2023-02-13T06:07:08.665Z,663.00
2023-02-13T06:07:38.666Z,666.00
2023-02-13T06:08:08.655Z,670.00
2023-02-13T06:08:38.650Z,676.00
2023-02-13T06:09:08.782Z,684.00
2023-02-13T06:09:38.887Z,687.00
2023-02-13T06:10:08.883Z,690.00
2023-02-13T06:10:38.997Z,693.00
2023-02-13T06:11:09.097Z,692.00
2023-02-13T06:11:39.167Z,691.00
2023-02-13T06:12:09.251Z,690.00
2023-02-13T06:12:39.329Z,688.00
2023-02-13T06:13:09.409Z,688.00
2023-02-13T06:13:39.489Z,687.00
2023-02-13T06:14:09.566Z,686.00
2023-02-13T06:14:39.649Z,685.00
2023-02-13T06:15:09.725Z,683.00
2023-02-13T06:15:39.833Z,682.00